createdAt,value
2023-04-02T00:00:04.000Z,0
2023-04-02T00:01:20.000Z,0
2023-04-02T00:02:36.000Z,0
2023-04-02T00:03:52.000Z,0
2023-04-02T00:05:08.000Z,0
2023-04-02T00:06:24.000Z,0
2023-04-02T00:07:40.000Z,0
2023-04-02T00:08:56.000Z,0
2023-04-02T00:10:12.000Z,0
2023-04-02T00:11:28.000Z,0
2023-04-02T00:12:44.000Z,0
2023-04-02T00:14:00.000Z,0
2023-04-02T00:15:16.000Z,0
2023-04-02T00:16:32.000Z,0
2023-04-02T00:17:49.000Z,0
2023-04-02T00:19:05.000Z,0
2023-04-02T00:20:21.000Z,0
2023-04-02T00:21:37.000Z,0
2023-04-02T00:22:53.000Z,0
2023-04-02T00:24:09.000Z,0
2023-04-02T00:25:24.000Z,0
2023-04-02T00:26:40.000Z,0
2023-04-02T00:27:57.000Z,0
2023-04-02T00:29:13.000Z,0
2023-04-02T00:30:29.000Z,0
2023-04-02T00:31:45.000Z,0
2023-04-02T00:33:01.000Z,0
2023-04-02T00:34:17.000Z,0
2023-04-02T00:35:33.000Z,0
2023-04-02T00:36:50.000Z,0
2023-04-02T00:38:06.000Z,0
2023-04-02T00:39:22.000Z,0
2023-04-02T00:40:38.000Z,0
2023-04-02T00:41:53.000Z,0
2023-04-02T00:43:08.000Z,0
2023-04-02T00:44:23.000Z,0
2023-04-02T00:45:40.000Z,0
2023-04-02T00:46:56.000Z,0
2023-04-02T00:48:11.000Z,0
2023-04-02T00:49:26.000Z,0
2023-04-02T00:50:42.000Z,0
2023-04-02T00:51:58.000Z,0
2023-04-02T00:53:14.000Z,0
2023-04-02T00:54:30.000Z,0
2023-04-02T00:55:47.000Z,0
2023-04-02T00:57:03.000Z,0
2023-04-02T00:58:19.000Z,0
2023-04-02T00:59:35.000Z,0
2023-04-02T01:00:51.000Z,0
2023-04-02T01:02:07.000Z,0
2023-04-02T01:03:23.000Z,0
2023-04-02T01:04:40.000Z,0
2023-04-02T01:05:55.000Z,0
2023-04-02T01:07:11.000Z,0
2023-04-02T01:08:27.000Z,0
2023-04-02T01:09:43.000Z,0
2023-04-02T01:10:59.000Z,0
2023-04-02T01:12:15.000Z,0
2023-04-02T01:13:31.000Z,0
2023-04-02T01:14:48.000Z,0
2023-04-02T01:16:04.000Z,0
2023-04-02T01:17:20.000Z,0
2023-04-02T01:18:36.000Z,0
2023-04-02T01:19:52.000Z,0
2023-04-02T01:21:08.000Z,0
2023-04-02T01:22:23.000Z,0
2023-04-02T01:23:40.000Z,0
2023-04-02T01:24:56.000Z,0
2023-04-02T01:26:12.000Z,0
2023-04-02T01:27:28.000Z,0
2023-04-02T01:28:44.000Z,0
2023-04-02T01:30:00.000Z,0
2023-04-02T01:31:16.000Z,0
2023-04-02T01:32:32.000Z,0
2023-04-02T01:33:49.000Z,0
2023-04-02T01:35:05.000Z,0
2023-04-02T01:36:21.000Z,0
2023-04-02T01:37:37.000Z,0
2023-04-02T01:38:52.000Z,0
2023-04-02T01:40:08.000Z,0
2023-04-02T01:41:24.000Z,0
2023-04-02T01:42:41.000Z,0
2023-04-02T01:43:57.000Z,0
2023-04-02T01:45:13.000Z,0
2023-04-02T01:46:29.000Z,0
2023-04-02T01:47:45.000Z,0
2023-04-02T01:49:01.000Z,0
2023-04-02T01:50:17.000Z,0
2023-04-02T01:51:33.000Z,0
2023-04-02T01:52:50.000Z,0
2023-04-02T01:54:06.000Z,0
2023-04-02T01:55:21.000Z,0
2023-04-02T01:56:37.000Z,0
2023-04-02T01:57:53.000Z,0
2023-04-02T01:59:09.000Z,0
2023-04-02T02:00:25.000Z,0
2023-04-02T02:01:42.000Z,0
2023-04-02T02:02:58.000Z,0
2023-04-02T02:04:14.000Z,0
2023-04-02T02:05:30.000Z,0
2023-04-02T02:06:46.000Z,0
2023-04-02T02:08:02.000Z,0
2023-04-02T02:09:18.000Z,0
2023-04-02T02:10:34.000Z,0
2023-04-02T02:11:50.000Z,0
2023-04-02T02:13:05.000Z,0
2023-04-02T02:14:20.000Z,0
2023-04-02T02:15:35.000Z,0
2023-04-02T02:16:51.000Z,0
2023-04-02T02:18:07.000Z,0
2023-04-02T02:19:23.000Z,0
2023-04-02T02:20:40.000Z,0
2023-04-02T02:21:56.000Z,0
2023-04-02T02:23:12.000Z,0
2023-04-02T02:24:28.000Z,0
2023-04-02T02:25:44.000Z,0
2023-04-02T02:27:00.000Z,0
2023-04-02T02:28:16.000Z,0
2023-04-02T02:29:33.000Z,0
2023-04-02T02:30:49.000Z,0
2023-04-02T02:32:04.000Z,0
2023-04-02T02:33:20.000Z,0
2023-04-02T02:34:36.000Z,0
2023-04-02T02:35:52.000Z,0
2023-04-02T02:37:08.000Z,0
2023-04-02T02:38:25.000Z,0
2023-04-02T02:39:41.000Z,0
2023-04-02T02:40:57.000Z,0
2023-04-02T02:42:13.000Z,0
2023-04-02T02:43:29.000Z,0
2023-04-02T02:44:45.000Z,0
2023-04-02T02:46:01.000Z,0
2023-04-02T02:47:17.000Z,0
2023-04-02T02:48:33.000Z,0
2023-04-02T02:49:49.000Z,0
2023-04-02T02:51:05.000Z,0
2023-04-02T02:52:21.000Z,0
2023-04-02T02:53:37.000Z,0
2023-04-02T02:54:53.000Z,0
2023-04-02T02:56:09.000Z,0
2023-04-02T02:57:26.000Z,0
2023-04-02T02:58:42.000Z,0
2023-04-02T02:59:58.000Z,0
2023-04-02T03:01:14.000Z,0
2023-04-02T03:02:30.000Z,0
2023-04-02T03:03:46.000Z,0
2023-04-02T03:05:01.000Z,0
2023-04-02T03:06:17.000Z,0
2023-04-02T03:07:34.000Z,0
2023-04-02T03:08:50.000Z,0
2023-04-02T03:10:06.000Z,0
2023-04-02T03:11:22.000Z,0
2023-04-02T03:12:38.000Z,0
2023-04-02T03:13:54.000Z,0
2023-04-02T03:15:10.000Z,0
2023-04-02T03:16:27.000Z,0
2023-04-02T03:17:43.000Z,0
2023-04-02T03:18:59.000Z,0
2023-04-02T03:20:15.000Z,0
2023-04-02T03:21:30.000Z,0
2023-04-02T03:22:46.000Z,0
2023-04-02T03:24:02.000Z,0
2023-04-02T03:25:17.000Z,0
2023-04-02T03:26:33.000Z,0
2023-04-02T03:27:48.000Z,0
2023-04-02T03:29:03.000Z,0
2023-04-02T03:30:19.000Z,0
2023-04-02T03:31:35.000Z,0
2023-04-02T03:32:51.000Z,0
2023-04-02T03:34:07.000Z,0
2023-04-02T03:35:24.000Z,0
2023-04-02T03:36:40.000Z,0
2023-04-02T03:37:56.000Z,0
2023-04-02T03:39:12.000Z,0
2023-04-02T03:40:28.000Z,0
2023-04-02T03:41:44.000Z,0
2023-04-02T03:43:00.000Z,0
2023-04-02T03:44:17.000Z,0
2023-04-02T03:45:32.000Z,0
2023-04-02T03:46:48.000Z,0
2023-04-02T03:48:04.000Z,0
2023-04-02T03:49:20.000Z,0
2023-04-02T03:50:36.000Z,0
2023-04-02T03:51:52.000Z,0
2023-04-02T03:53:08.000Z,0
2023-04-02T03:54:24.000Z,0
2023-04-02T03:55:39.000Z,0
2023-04-02T03:56:55.000Z,0
2023-04-02T03:58:10.000Z,0
2023-04-02T03:59:25.000Z,0
2023-04-02T04:00:41.000Z,0
2023-04-02T04:01:57.000Z,0
2023-04-02T04:03:14.000Z,0
2023-04-02T04:04:30.000Z,0
2023-04-02T04:05:46.000Z,0
2023-04-02T04:07:02.000Z,0
2023-04-02T04:08:18.000Z,0
2023-04-02T04:09:34.000Z,0
2023-04-02T04:10:50.000Z,0
2023-04-02T04:12:07.000Z,0
2023-04-02T04:13:23.000Z,0
2023-04-02T04:14:39.000Z,0
2023-04-02T04:15:54.000Z,0
2023-04-02T04:17:10.000Z,0
2023-04-02T04:18:26.000Z,0
2023-04-02T04:19:42.000Z,0
2023-04-02T04:20:58.000Z,0
2023-04-02T04:22:15.000Z,0
2023-04-02T04:23:31.000Z,0
2023-04-02T04:24:46.000Z,0
2023-04-02T04:26:01.000Z,0
2023-04-02T04:27:17.000Z,0
2023-04-02T04:28:33.000Z,0
2023-04-02T04:29:49.000Z,0
2023-04-02T04:31:05.000Z,0
2023-04-02T04:32:20.000Z,0
2023-04-02T04:33:36.000Z,0
2023-04-02T04:34:52.000Z,0
2023-04-02T04:37:24.000Z,0
2023-04-02T04:38:40.000Z,0
2023-04-02T04:39:57.000Z,0
2023-04-02T04:41:13.000Z,0
2023-04-02T04:42:29.000Z,0
2023-04-02T04:43:45.000Z,0
2023-04-02T04:45:01.000Z,0
2023-04-02T04:46:17.000Z,0
2023-04-02T04:47:33.000Z,0
2023-04-02T04:48:48.000Z,0
2023-04-02T04:50:05.000Z,0
2023-04-02T04:51:21.000Z,0
2023-04-02T04:52:37.000Z,0
2023-04-02T04:53:53.000Z,0
2023-04-02T04:55:09.000Z,0
2023-04-02T04:56:25.000Z,0
2023-04-02T04:57:41.000Z,0
2023-04-02T04:58:57.000Z,0
2023-04-02T05:00:12.000Z,5
2023-04-02T05:01:27.000Z,5
2023-04-02T05:02:42.000Z,5
2023-04-02T05:03:58.000Z,5
2023-04-02T05:05:14.000Z,5
2023-04-02T05:06:30.000Z,11
2023-04-02T05:07:47.000Z,11
2023-04-02T05:09:03.000Z,11
2023-04-02T05:10:19.000Z,11
2023-04-02T05:11:35.000Z,11
2023-04-02T05:12:51.000Z,11
2023-04-02T05:15:23.000Z,16
2023-04-02T05:16:39.000Z,16
2023-04-02T05:17:56.000Z,22
2023-04-02T05:19:11.000Z,22
2023-04-02T05:20:27.000Z,28
2023-04-02T05:21:43.000Z,28
2023-04-02T05:22:59.000Z,28
2023-04-02T05:24:15.000Z,33
2023-04-02T05:25:31.000Z,33
2023-04-02T05:26:48.000Z,33
2023-04-02T05:28:04.000Z,33
2023-04-02T05:30:36.000Z,39
2023-04-02T05:31:52.000Z,39
2023-04-02T05:33:08.000Z,45
2023-04-02T05:34:24.000Z,45
2023-04-02T05:35:40.000Z,50
2023-04-02T05:36:56.000Z,56
2023-04-02T05:38:12.000Z,56
2023-04-02T05:39:28.000Z,67
2023-04-02T05:40:44.000Z,67
2023-04-02T05:42:00.000Z,73
2023-04-02T05:43:16.000Z,78
2023-04-02T05:44:32.000Z,78
2023-04-02T05:45:49.000Z,84
2023-04-02T05:47:05.000Z,90
2023-04-02T05:48:21.000Z,95
2023-04-02T05:49:37.000Z,101
2023-04-02T05:50:53.000Z,101
2023-04-02T05:52:08.000Z,112
2023-04-02T05:53:24.000Z,118
2023-04-02T05:54:41.000Z,118
2023-04-02T05:55:57.000Z,123
2023-04-02T05:57:13.000Z,140
2023-04-02T05:58:29.000Z,140
2023-04-02T05:59:45.000Z,151
2023-04-02T06:01:01.000Z,151
2023-04-02T06:02:17.000Z,151
2023-04-02T06:03:33.000Z,146
2023-04-02T06:04:50.000Z,151
2023-04-02T06:06:06.000Z,157
2023-04-02T06:07:22.000Z,163
2023-04-02T06:08:37.000Z,180
2023-04-02T06:09:53.000Z,191
2023-04-02T06:11:09.000Z,196
2023-04-02T06:12:25.000Z,196
2023-04-02T06:13:42.000Z,191
2023-04-02T06:14:58.000Z,202
2023-04-02T06:16:14.000Z,208
2023-04-02T06:17:30.000Z,241
2023-04-02T06:18:46.000Z,275
2023-04-02T06:21:18.000Z,236
2023-04-02T06:22:34.000Z,241
2023-04-02T06:23:51.000Z,247
2023-04-02T06:25:06.000Z,258
2023-04-02T06:26:22.000Z,258
2023-04-02T06:27:38.000Z,264
2023-04-02T06:28:54.000Z,270
2023-04-02T06:30:10.000Z,275
2023-04-02T06:31:26.000Z,281
2023-04-02T06:32:43.000Z,292
2023-04-02T06:33:59.000Z,309
2023-04-02T06:35:15.000Z,315
2023-04-02T06:36:31.000Z,320
2023-04-02T06:37:47.000Z,326
2023-04-02T06:39:03.000Z,326
2023-04-02T06:40:19.000Z,303
2023-04-02T06:41:34.000Z,298
2023-04-02T06:42:51.000Z,331
2023-04-02T06:44:07.000Z,343
2023-04-02T06:45:23.000Z,354
2023-04-02T06:46:39.000Z,360
2023-04-02T06:47:55.000Z,371
2023-04-02T06:49:11.000Z,376
2023-04-02T06:50:27.000Z,371
2023-04-02T06:51:44.000Z,371
2023-04-02T06:53:00.000Z,376
2023-04-02T06:54:16.000Z,371
2023-04-02T06:55:32.000Z,365
2023-04-02T06:56:48.000Z,360
2023-04-02T06:58:03.000Z,360
2023-04-02T06:59:19.000Z,354
2023-04-02T07:00:35.000Z,354
2023-04-02T07:01:52.000Z,320
2023-04-02T07:03:07.000Z,315
2023-04-02T07:04:22.000Z,309
2023-04-02T07:05:38.000Z,275
2023-04-02T07:06:54.000Z,258
2023-04-02T07:08:09.000Z,241
2023-04-02T07:09:24.000Z,236
2023-04-02T07:10:41.000Z,241
2023-04-02T07:11:57.000Z,275
2023-04-02T07:13:13.000Z,303
2023-04-02T07:14:29.000Z,286
2023-04-02T07:15:45.000Z,281
2023-04-02T07:17:01.000Z,270
2023-04-02T07:18:17.000Z,230
2023-04-02T07:19:34.000Z,241
2023-04-02T07:20:50.000Z,258
2023-04-02T07:22:06.000Z,264
2023-04-02T07:23:22.000Z,264
2023-04-02T07:24:38.000Z,264
2023-04-02T07:25:53.000Z,264
2023-04-02T07:27:09.000Z,292
2023-04-02T07:28:25.000Z,309
2023-04-02T07:29:42.000Z,315
2023-04-02T07:30:58.000Z,315
2023-04-02T07:32:14.000Z,320
2023-04-02T07:33:30.000Z,303
2023-04-02T07:34:45.000Z,286
2023-04-02T07:36:00.000Z,281
2023-04-02T07:37:16.000Z,320
2023-04-02T07:38:32.000Z,337
2023-04-02T07:39:47.000Z,348
2023-04-02T07:41:03.000Z,365
2023-04-02T07:42:19.000Z,393
2023-04-02T07:43:35.000Z,416
2023-04-02T07:44:51.000Z,438
2023-04-02T07:46:07.000Z,444
2023-04-02T07:47:24.000Z,438
2023-04-02T07:48:40.000Z,466
2023-04-02T07:49:56.000Z,478
2023-04-02T07:51:12.000Z,483
2023-04-02T07:52:28.000Z,495
2023-04-02T07:53:44.000Z,511
2023-04-02T07:55:00.000Z,528
2023-04-02T07:56:15.000Z,534
2023-04-02T07:57:32.000Z,545
2023-04-02T07:58:48.000Z,551
2023-04-02T08:00:04.000Z,562
2023-04-02T08:01:20.000Z,562
2023-04-02T08:02:36.000Z,556
2023-04-02T08:03:52.000Z,545
2023-04-02T08:05:07.000Z,540
2023-04-02T08:06:23.000Z,545
2023-04-02T08:07:39.000Z,579
2023-04-02T08:10:10.000Z,613
2023-04-02T08:11:25.000Z,641
2023-04-02T08:12:40.000Z,646
2023-04-02T08:13:56.000Z,630
2023-04-02T08:15:13.000Z,613
2023-04-02T08:16:29.000Z,585
2023-04-02T08:17:45.000Z,585
2023-04-02T08:19:01.000Z,596
2023-04-02T08:20:17.000Z,590
2023-04-02T08:21:33.000Z,596
2023-04-02T08:22:49.000Z,579
2023-04-02T08:24:05.000Z,596
2023-04-02T08:25:22.000Z,613
2023-04-02T08:26:38.000Z,618
2023-04-02T08:27:54.000Z,613
2023-04-02T08:29:09.000Z,607
2023-04-02T08:30:25.000Z,607
2023-04-02T08:31:41.000Z,630
2023-04-02T08:32:57.000Z,641
2023-04-02T08:34:14.000Z,613
2023-04-02T08:35:30.000Z,663
2023-04-02T08:36:46.000Z,686
2023-04-02T08:38:02.000Z,748
2023-04-02T08:39:18.000Z,776
2023-04-02T08:40:34.000Z,826
2023-04-02T08:41:50.000Z,849
2023-04-02T08:43:06.000Z,804
2023-04-02T08:44:23.000Z,703
2023-04-02T08:45:38.000Z,635
2023-04-02T08:48:10.000Z,579
2023-04-02T08:49:26.000Z,528
2023-04-02T08:50:42.000Z,500
2023-04-02T08:51:58.000Z,534
2023-04-02T08:53:15.000Z,646
2023-04-02T08:54:31.000Z,916
2023-04-02T08:55:47.000Z,922
2023-04-02T08:57:02.000Z,815
2023-04-02T08:58:17.000Z,939
2023-04-02T08:59:33.000Z,776
2023-04-02T09:00:49.000Z,871
2023-04-02T09:03:21.000Z,905
2023-04-02T09:04:36.000Z,838
2023-04-02T09:05:51.000Z,748
2023-04-02T09:07:07.000Z,725
2023-04-02T09:08:23.000Z,703
2023-04-02T09:10:56.000Z,860
2023-04-02T09:12:12.000Z,866
2023-04-02T09:13:28.000Z,877
2023-04-02T09:14:44.000Z,860
2023-04-02T09:16:00.000Z,838
2023-04-02T09:17:16.000Z,798
2023-04-02T09:18:32.000Z,714
2023-04-02T09:19:48.000Z,624
2023-04-02T09:21:05.000Z,562
2023-04-02T09:22:20.000Z,523
2023-04-02T09:23:36.000Z,511
2023-04-02T09:26:08.000Z,466
2023-04-02T09:27:23.000Z,455
2023-04-02T09:28:38.000Z,427
2023-04-02T09:29:55.000Z,405
2023-04-02T09:31:11.000Z,393
2023-04-02T09:32:27.000Z,393
2023-04-02T09:33:43.000Z,405
2023-04-02T09:34:59.000Z,444
2023-04-02T09:36:15.000Z,495
2023-04-02T09:37:31.000Z,534
2023-04-02T09:38:47.000Z,556
2023-04-02T09:40:04.000Z,573
2023-04-02T09:41:19.000Z,613
2023-04-02T09:42:34.000Z,590
2023-04-02T09:43:50.000Z,562
2023-04-02T09:45:06.000Z,540
2023-04-02T09:46:22.000Z,534
2023-04-02T09:47:38.000Z,540
2023-04-02T09:48:55.000Z,556
2023-04-02T09:50:11.000Z,585
2023-04-02T09:51:27.000Z,601
2023-04-02T09:52:43.000Z,641
2023-04-02T09:53:59.000Z,686
2023-04-02T09:55:15.000Z,731
2023-04-02T09:56:31.000Z,776
2023-04-02T09:57:47.000Z,843
2023-04-02T09:59:03.000Z,950
2023-04-02T10:00:19.000Z,1108
2023-04-02T10:01:35.000Z,1203
2023-04-02T10:02:51.000Z,1473
2023-04-02T10:04:07.000Z,1783
2023-04-02T10:05:23.000Z,1389
2023-04-02T10:06:39.000Z,1260
2023-04-02T10:07:55.000Z,1130
2023-04-02T10:09:10.000Z,1063
2023-04-02T10:10:26.000Z,1023
2023-04-02T10:11:42.000Z,978
2023-04-02T10:12:57.000Z,922
2023-04-02T10:14:13.000Z,866
2023-04-02T10:15:28.000Z,815
2023-04-02T10:16:45.000Z,781
2023-04-02T10:18:01.000Z,725
2023-04-02T10:19:17.000Z,680
2023-04-02T10:20:33.000Z,630
2023-04-02T10:21:49.000Z,568
2023-04-02T10:23:05.000Z,517
2023-04-02T10:24:21.000Z,483
2023-04-02T10:25:37.000Z,461
2023-04-02T10:26:54.000Z,433
2023-04-02T10:28:10.000Z,399
2023-04-02T10:29:26.000Z,360
2023-04-02T10:30:42.000Z,326
2023-04-02T10:31:57.000Z,298
2023-04-02T10:33:13.000Z,281
2023-04-02T10:34:29.000Z,258
2023-04-02T10:37:02.000Z,225
2023-04-02T10:38:18.000Z,213
2023-04-02T10:39:34.000Z,202
2023-04-02T10:42:06.000Z,196
2023-04-02T10:43:22.000Z,191
2023-04-02T10:44:38.000Z,180
2023-04-02T10:45:55.000Z,168
2023-04-02T10:47:11.000Z,168
2023-04-02T10:48:26.000Z,168
2023-04-02T10:49:42.000Z,163
2023-04-02T10:50:58.000Z,157
2023-04-02T10:52:14.000Z,151
2023-04-02T10:53:30.000Z,146
2023-04-02T10:54:47.000Z,140
2023-04-02T10:56:03.000Z,140
2023-04-02T10:57:19.000Z,129
2023-04-02T10:58:35.000Z,123
2023-04-02T10:59:51.000Z,123
2023-04-02T11:01:07.000Z,118
2023-04-02T11:02:23.000Z,112
2023-04-02T11:03:39.000Z,112
2023-04-02T11:04:55.000Z,112
2023-04-02T11:06:11.000Z,106
2023-04-02T11:07:27.400Z,106
2023-04-02T11:08:43.000Z,106
2023-04-02T11:09:59.000Z,101
2023-04-02T11:11:15.000Z,106
2023-04-02T11:12:31.000Z,106
2023-04-02T11:13:48.000Z,106
2023-04-02T11:15:04.000Z,112
2023-04-02T11:16:19.000Z,118
2023-04-02T11:17:34.000Z,118
2023-04-02T11:18:50.000Z,123
2023-04-02T11:20:06.000Z,129
2023-04-02T11:21:21.000Z,135
2023-04-02T11:22:37.000Z,140
2023-04-02T11:23:53.000Z,140
2023-04-02T11:25:09.000Z,146
2023-04-02T11:26:25.000Z,146
2023-04-02T11:27:41.000Z,146
2023-04-02T11:28:57.000Z,146
2023-04-02T11:30:13.000Z,140
2023-04-02T11:31:29.000Z,140
2023-04-02T11:32:46.000Z,140
2023-04-02T11:34:02.000Z,140
2023-04-02T11:35:18.000Z,135
2023-04-02T11:36:34.000Z,135
2023-04-02T11:37:50.000Z,129
2023-04-02T11:39:05.000Z,129
2023-04-02T11:40:21.000Z,123
2023-04-02T11:41:38.000Z,123
2023-04-02T11:42:54.000Z,123
2023-04-02T11:44:10.000Z,123
2023-04-02T11:45:26.000Z,123
2023-04-02T11:46:42.000Z,123
2023-04-02T11:47:57.000Z,123
2023-04-02T11:49:12.000Z,123
2023-04-02T11:50:29.000Z,123
2023-04-02T11:51:44.000Z,123
2023-04-02T11:52:59.000Z,123
2023-04-02T11:54:15.000Z,123
2023-04-02T11:55:31.000Z,129
2023-04-02T11:56:47.000Z,129
2023-04-02T11:58:03.000Z,129
2023-04-02T11:59:20.000Z,129
2023-04-02T12:00:36.000Z,129
2023-04-02T12:01:52.000Z,135
2023-04-02T12:03:08.000Z,135
2023-04-02T12:04:24.000Z,135
2023-04-02T12:05:40.000Z,140
2023-04-02T12:06:56.000Z,146
2023-04-02T12:08:12.000Z,151
2023-04-02T12:09:28.000Z,163
2023-04-02T12:10:44.000Z,174
2023-04-02T12:12:00.000Z,191
2023-04-02T12:13:16.000Z,208
2023-04-02T12:14:32.000Z,236
2023-04-02T12:15:48.000Z,258
2023-04-02T12:17:04.000Z,292
2023-04-02T12:18:20.000Z,331
2023-04-02T12:19:35.000Z,354
2023-04-02T12:20:51.000Z,382
2023-04-02T12:22:07.000Z,399
2023-04-02T12:23:23.000Z,405
2023-04-02T12:24:38.000Z,410
2023-04-02T12:25:53.000Z,416
2023-04-02T12:27:10.000Z,416
2023-04-02T12:28:26.000Z,421
2023-04-02T12:29:42.000Z,427
2023-04-02T12:30:58.000Z,433
2023-04-02T12:32:14.000Z,438
2023-04-02T12:33:30.000Z,438
2023-04-02T12:34:46.000Z,444
2023-04-02T12:36:02.000Z,444
2023-04-02T12:37:19.000Z,444
2023-04-02T12:38:35.000Z,444
2023-04-02T12:39:51.000Z,444
2023-04-02T12:41:07.000Z,444
2023-04-02T12:42:22.000Z,444
2023-04-02T12:43:38.000Z,450
2023-04-02T12:44:54.000Z,455
2023-04-02T12:46:11.000Z,466
2023-04-02T12:47:27.000Z,472
2023-04-02T12:48:43.000Z,489
2023-04-02T12:49:59.000Z,511
2023-04-02T12:51:14.000Z,534
2023-04-02T12:52:29.000Z,562
2023-04-02T12:53:45.000Z,585
2023-04-02T12:55:01.000Z,601
2023-04-02T12:56:16.000Z,618
2023-04-02T12:57:32.000Z,635
2023-04-02T12:58:48.000Z,658
2023-04-02T13:00:04.000Z,686
2023-04-02T13:01:20.000Z,708
2023-04-02T13:02:36.000Z,731
2023-04-02T13:03:52.000Z,748
2023-04-02T13:05:09.000Z,748
2023-04-02T13:06:25.000Z,742
2023-04-02T13:07:41.000Z,742
2023-04-02T13:08:57.000Z,731
2023-04-02T13:10:13.000Z,731
2023-04-02T13:11:29.000Z,714
2023-04-02T13:12:44.000Z,686
2023-04-02T13:14:01.000Z,652
2023-04-02T13:15:17.000Z,635
2023-04-02T13:16:33.000Z,590
2023-04-02T13:17:49.000Z,568
2023-04-02T13:19:05.000Z,573
2023-04-02T13:20:21.000Z,607
2023-04-02T13:21:37.000Z,630
2023-04-02T13:22:52.000Z,630
2023-04-02T13:24:08.000Z,624
2023-04-02T13:25:24.000Z,630
2023-04-02T13:26:40.000Z,635
2023-04-02T13:27:55.000Z,607
2023-04-02T13:29:10.000Z,669
2023-04-02T13:30:26.000Z,776
2023-04-02T13:31:42.000Z,742
2023-04-02T13:32:59.000Z,675
2023-04-02T13:34:15.000Z,630
2023-04-02T13:35:31.000Z,624
2023-04-02T13:36:47.000Z,630
2023-04-02T13:38:03.000Z,641
2023-04-02T13:39:19.000Z,658
2023-04-02T13:40:35.000Z,663
2023-04-02T13:41:52.000Z,680
2023-04-02T13:43:08.000Z,680
2023-04-02T13:44:24.000Z,680
2023-04-02T13:45:39.000Z,680
2023-04-02T13:46:55.000Z,675
2023-04-02T13:48:11.000Z,658
2023-04-02T13:49:27.000Z,663
2023-04-02T13:52:00.000Z,618
2023-04-02T13:53:16.000Z,596
2023-04-02T13:54:32.000Z,568
2023-04-02T13:55:48.000Z,540
2023-04-02T13:57:04.000Z,500
2023-04-02T13:58:20.000Z,455
2023-04-02T13:59:36.000Z,421
2023-04-02T14:00:52.000Z,388
2023-04-02T14:02:07.000Z,360
2023-04-02T14:03:23.000Z,343
2023-04-02T14:04:39.000Z,337
2023-04-02T14:07:10.000Z,298
2023-04-02T14:08:25.000Z,292
2023-04-02T14:09:41.000Z,292
2023-04-02T14:10:57.000Z,292
2023-04-02T14:12:13.000Z,298
2023-04-02T14:13:29.000Z,315
2023-04-02T14:14:45.000Z,337
2023-04-02T14:16:01.000Z,354
2023-04-02T14:17:17.000Z,365
2023-04-02T14:18:33.000Z,365
2023-04-02T14:19:50.000Z,371
2023-04-02T14:21:06.000Z,393
2023-04-02T14:22:22.000Z,416
2023-04-02T14:23:38.000Z,444
2023-04-02T14:24:54.000Z,466
2023-04-02T14:26:09.000Z,495
2023-04-02T14:27:25.000Z,523
2023-04-02T14:28:42.000Z,551
2023-04-02T14:29:58.000Z,556
2023-04-02T14:31:14.000Z,551
2023-04-02T14:32:30.000Z,551
2023-04-02T14:33:46.000Z,540
2023-04-02T14:35:02.000Z,528
2023-04-02T14:36:18.000Z,517
2023-04-02T14:37:34.000Z,506
2023-04-02T14:38:50.000Z,495
2023-04-02T14:40:05.000Z,483
2023-04-02T14:41:21.000Z,472
2023-04-02T14:42:37.000Z,461
2023-04-02T14:43:53.000Z,461
2023-04-02T14:45:09.000Z,455
2023-04-02T14:46:24.000Z,438
2023-04-02T14:47:40.000Z,433
2023-04-02T14:48:56.000Z,438
2023-04-02T14:50:12.000Z,455
2023-04-02T14:51:28.000Z,416
2023-04-02T14:52:44.000Z,405
2023-04-02T14:54:00.000Z,421
2023-04-02T14:55:16.000Z,444
2023-04-02T14:56:33.000Z,461
2023-04-02T14:57:49.000Z,433
2023-04-02T14:59:05.000Z,410
2023-04-02T15:00:21.000Z,405
2023-04-02T15:01:37.000Z,393
2023-04-02T15:02:53.000Z,393
2023-04-02T15:04:08.000Z,410
2023-04-02T15:05:24.000Z,421
2023-04-02T15:06:41.000Z,455
2023-04-02T15:07:57.000Z,489
2023-04-02T15:09:13.000Z,500
2023-04-02T15:10:29.000Z,511
2023-04-02T15:11:45.000Z,517
2023-04-02T15:13:01.000Z,517
2023-04-02T15:14:17.000Z,517
2023-04-02T15:15:34.000Z,495
2023-04-02T15:16:50.000Z,455
2023-04-02T15:18:06.000Z,416
2023-04-02T15:19:22.000Z,399
2023-04-02T15:20:37.000Z,388
2023-04-02T15:21:52.000Z,371
2023-04-02T15:23:08.000Z,348
2023-04-02T15:24:24.000Z,331
2023-04-02T15:25:42.000Z,320
2023-04-02T15:26:57.000Z,315
2023-04-02T15:28:14.000Z,298
2023-04-02T15:29:30.000Z,281
2023-04-02T15:30:46.000Z,264
2023-04-02T15:32:02.000Z,247
2023-04-02T15:33:18.000Z,230
2023-04-02T15:34:35.000Z,213
2023-04-02T15:35:51.000Z,213
2023-04-02T15:37:06.000Z,208
2023-04-02T15:38:22.000Z,208
2023-04-02T15:39:38.000Z,196
2023-04-02T15:40:54.000Z,196
2023-04-02T15:42:09.000Z,202
2023-04-02T15:43:24.000Z,191
2023-04-02T15:44:41.000Z,185
2023-04-02T15:45:57.000Z,191
2023-04-02T15:47:13.000Z,208
2023-04-02T15:48:29.000Z,219
2023-04-02T15:49:44.000Z,213
2023-04-02T15:50:59.000Z,208
2023-04-02T15:52:15.000Z,202
2023-04-02T15:53:32.000Z,196
2023-04-02T15:54:48.000Z,196
2023-04-02T15:56:04.000Z,196
2023-04-02T15:57:20.000Z,191
2023-04-02T15:58:36.000Z,185
2023-04-02T15:59:52.000Z,191
2023-04-02T16:01:08.000Z,196
2023-04-02T16:02:25.000Z,202
2023-04-02T16:03:41.000Z,202
2023-04-02T16:04:57.000Z,185
2023-04-02T16:06:13.000Z,174
2023-04-02T16:08:44.000Z,163
2023-04-02T16:10:00.000Z,168
2023-04-02T16:11:16.000Z,174
2023-04-02T16:12:33.000Z,180
2023-04-02T16:13:49.000Z,191
2023-04-02T16:15:05.000Z,202
2023-04-02T16:16:21.000Z,213
2023-04-02T16:17:36.000Z,225
2023-04-02T16:18:51.000Z,236
2023-04-02T16:20:06.000Z,253
2023-04-02T16:21:22.000Z,264
2023-04-02T16:22:38.000Z,270
2023-04-02T16:23:54.000Z,258
2023-04-02T16:25:10.000Z,247
2023-04-02T16:26:26.000Z,236
2023-04-02T16:27:42.000Z,219
2023-04-02T16:28:58.000Z,196
2023-04-02T16:30:15.000Z,196
2023-04-02T16:31:31.000Z,185
2023-04-02T16:32:47.000Z,180
2023-04-02T16:34:03.000Z,174
2023-04-02T16:35:19.000Z,163
2023-04-02T16:36:35.000Z,151
2023-04-02T16:37:50.000Z,135
2023-04-02T16:39:06.000Z,118
2023-04-02T16:40:22.000Z,101
2023-04-02T16:41:38.000Z,95
2023-04-02T16:42:54.000Z,84
2023-04-02T16:44:10.000Z,78
2023-04-02T16:45:26.000Z,78
2023-04-02T16:46:42.000Z,84
2023-04-02T16:47:58.000Z,84
2023-04-02T16:49:15.000Z,84
2023-04-02T16:50:31.000Z,84
2023-04-02T16:51:47.000Z,90
2023-04-02T16:53:03.000Z,95
2023-04-02T16:54:19.000Z,106
2023-04-02T16:56:50.000Z,135
2023-04-02T16:58:06.000Z,140
2023-04-02T16:59:23.000Z,129
2023-04-02T17:00:39.000Z,106
2023-04-02T17:01:55.000Z,84
2023-04-02T17:03:11.000Z,61
2023-04-02T17:04:27.000Z,50
2023-04-02T17:05:43.000Z,45
2023-04-02T17:06:59.000Z,39
2023-04-02T17:08:16.000Z,28
2023-04-02T17:09:32.000Z,22
2023-04-02T17:10:48.000Z,16
2023-04-02T17:12:04.000Z,22
2023-04-02T17:13:19.000Z,22
2023-04-02T17:14:35.000Z,16
2023-04-02T17:15:51.000Z,16
2023-04-02T17:17:07.000Z,11
2023-04-02T17:18:24.000Z,11
2023-04-02T17:19:40.000Z,11
2023-04-02T17:20:56.000Z,5
2023-04-02T17:22:12.000Z,5
2023-04-02T17:23:28.000Z,5
2023-04-02T17:24:44.000Z,5
2023-04-02T17:26:00.000Z,5
2023-04-02T17:27:17.000Z,0
2023-04-02T17:28:32.000Z,0
2023-04-02T17:29:47.000Z,0
2023-04-02T17:31:03.000Z,0
2023-04-02T17:32:19.000Z,0
2023-04-02T17:33:34.000Z,0
2023-04-02T17:34:49.000Z,0
2023-04-02T17:36:06.000Z,0
2023-04-02T17:37:22.000Z,0
2023-04-02T17:38:38.000Z,0
2023-04-02T17:39:54.000Z,0
2023-04-02T17:41:10.000Z,0
2023-04-02T17:42:26.000Z,0
2023-04-02T17:43:42.000Z,0
2023-04-02T17:44:58.000Z,0
2023-04-02T17:47:31.000Z,0
2023-04-02T17:48:47.000Z,0
2023-04-02T17:50:03.000Z,0
2023-04-02T17:51:18.000Z,0
2023-04-02T17:52:34.000Z,0
2023-04-02T17:53:50.000Z,0
2023-04-02T17:55:07.000Z,0
2023-04-02T17:56:23.000Z,0
2023-04-02T17:57:39.000Z,0
2023-04-02T17:58:55.000Z,0
2023-04-02T18:00:11.000Z,0
2023-04-02T18:02:42.000Z,0
2023-04-02T18:03:58.000Z,0
2023-04-02T18:05:13.000Z,0
2023-04-02T18:06:28.000Z,0
2023-04-02T18:07:43.000Z,0
2023-04-02T18:08:59.000Z,0
2023-04-02T18:10:15.000Z,0
2023-04-02T18:11:31.000Z,0
2023-04-02T18:12:47.000Z,0
2023-04-02T18:14:04.000Z,0